sensor_id;sensor_type;location;lat;lon;timestamp;pressure;altitude;pressure_sealevel;temperature;humidity
56272;BME280;42177;48.914;18.160;2023-02-13T00:03:10;1006.4;;;2.7;88.1
56272;BME280;42177;48.914;18.160;2023-02-13T00:08:10;1006.4;;;2.7;88.1
56272;BME280;42177;48.914;18.160;2023-02-13T00:13:10;1006.4;;;3.2;86.7
56272;BME280;42177;48.914;18.160;2023-02-13T00:18:10;1006.4;;;3.2;86.7
56272;BME280;42177;48.914;18.160;2023-02-13T00:23:10;1006.4;;;3.1;87.7
56272;BME280;42177;48.914;18.160;2023-02-13T00:28:10;1006.4;;;3.1;87.7
56272;BME280;42177;48.914;18.160;2023-02-13T00:33:10;1006.4;;;2.9;88.4
56272;BME280;42177;48.914;18.160;2023-02-13T00:38:10;1006.4;;;2.9;88.4
56272;BME280;42177;48.914;18.160;2023-02-13T00:43:10;1006.3;;;3.4;87.2
56272;BME280;42177;48.914;18.160;2023-02-13T00:48:10;1006.3;;;3.4;87.2
56272;BME280;42177;48.914;18.160;2023-02-13T00:53:10;1006.4;;;3.1;88.5
56272;BME280;42177;48.914;18.160;2023-02-13T00:58:10;1006.4;;;3.1;88.5
56272;BME280;42177;48.914;18.160;2023-02-13T01:03:10;1006.3;;;3.2;88.9
56272;BME280;42177;48.914;18.160;2023-02-13T01:08:11;1006.3;;;3.2;88.9
56272;BME280;42177;48.914;18.160;2023-02-13T01:13:10;1006.2;;;3.4;88.7
56272;BME280;42177;48.914;18.160;2023-02-13T01:18:11;1006.2;;;3.4;88.7
56272;BME280;42177;48.914;18.160;2023-02-13T01:23:10;1006.1;;;3.1;88.8
56272;BME280;42177;48.914;18.160;2023-02-13T01:28:10;1006.1;;;3.1;88.8
56272;BME280;42177;48.914;18.160;2023-02-13T01:33:10;1006.3;;;2.8;90.2
56272;BME280;42177;48.914;18.160;2023-02-13T01:38:10;1006.3;;;2.8;90.2
56272;BME280;42177;48.914;18.160;2023-02-13T01:43:10;1006.2;;;2.8;90
56272;BME280;42177;48.914;18.160;2023-02-13T01:48:11;1006.2;;;2.8;90
56272;BME280;42177;48.914;18.160;2023-02-13T01:53:11;1006.1;;;2.6;89.2
56272;BME280;42177;48.914;18.160;2023-02-13T01:58:11;1006.1;;;2.6;89.2
56272;BME280;42177;48.914;18.160;2023-02-13T02:03:12;1006.1;;;2.6;89
56272;BME280;42177;48.914;18.160;2023-02-13T02:08:11;1006.1;;;2.6;89
56272;BME280;42177;48.914;18.160;2023-02-13T02:13:11;1006;;;2.4;89.5
56272;BME280;42177;48.914;18.160;2023-02-13T02:18:12;1006;;;2.4;89.5
56272;BME280;42177;48.914;18.160;2023-02-13T02:23:20;1005.8;;;2.2;90.7
56272;BME280;42177;48.914;18.160;2023-02-13T02:28:16;1005.8;;;2.2;90.7
56272;BME280;42177;48.914;18.160;2023-02-13T02:33:14;1005.8;;;2.5;89.2
56272;BME280;42177;48.914;18.160;2023-02-13T02:38:13;1005.8;;;2.5;89.2
56272;BME280;42177;48.914;18.160;2023-02-13T02:43:13;1005.9;;;2.4;89.3
56272;BME280;42177;48.914;18.160;2023-02-13T02:48:11;1005.9;;;2.4;89.3
56272;BME280;42177;48.914;18.160;2023-02-13T02:53:15;1005.9;;;2.5;89.2
56272;BME280;42177;48.914;18.160;2023-02-13T02:58:12;1005.9;;;2.5;89.2
56272;BME280;42177;48.914;18.160;2023-02-13T03:03:11;1005.9;;;2.3;89.5
56272;BME280;42177;48.914;18.160;2023-02-13T03:08:10;1005.9;;;2.3;89.5
56272;BME280;42177;48.914;18.160;2023-02-13T03:13:11;1005.8;;;2.1;89.5
56272;BME280;42177;48.914;18.160;2023-02-13T03:18:10;1005.8;;;2.1;89.5
56272;BME280;42177;48.914;18.160;2023-02-13T03:23:11;1005.8;;;2.1;89.2
56272;BME280;42177;48.914;18.160;2023-02-13T03:28:11;1005.8;;;2.1;89.2
56272;BME280;42177;48.914;18.160;2023-02-13T03:33:14;1005.9;;;1.8;89.9
56272;BME280;42177;48.914;18.160;2023-02-13T03:38:12;1005.9;;;1.8;89.9
56272;BME280;42177;48.914;18.160;2023-02-13T03:43:10;1005.9;;;2.5;88.6
56272;BME280;42177;48.914;18.160;2023-02-13T03:48:10;1005.9;;;2.5;88.6
56272;BME280;42177;48.914;18.160;2023-02-13T03:53:10;1005.9;;;2.1;89
56272;BME280;42177;48.914;18.160;2023-02-13T03:58:13;1005.9;;;2.1;89
56272;BME280;42177;48.914;18.160;2023-02-13T04:03:12;1005.9;;;1.9;90.1
56272;BME280;42177;48.914;18.160;2023-02-13T04:08:10;1005.9;;;1.9;90.1
56272;BME280;42177;48.914;18.160;2023-02-13T04:13:11;1005.8;;;2;90
56272;BME280;42177;48.914;18.160;2023-02-13T04:18:12;1005.8;;;2;90
56272;BME280;42177;48.914;18.160;2023-02-13T04:23:10;1005.8;;;2.2;90.1
56272;BME280;42177;48.914;18.160;2023-02-13T04:28:10;1005.8;;;2.2;90.1
56272;BME280;42177;48.914;18.160;2023-02-13T04:33:10;1005.7;;;2;90.6
56272;BME280;42177;48.914;18.160;2023-02-13T04:38:10;1005.7;;;2;90.6
56272;BME280;42177;48.914;18.160;2023-02-13T04:43:10;1005.7;;;2.1;91.9
56272;BME280;42177;48.914;18.160;2023-02-13T04:48:10;1005.7;;;2.1;91.9
56272;BME280;42177;48.914;18.160;2023-02-13T04:53:10;1005.9;;;2.4;91.4
56272;BME280;42177;48.914;18.160;2023-02-13T04:58:10;1005.9;;;2.4;91.4
56272;BME280;42177;48.914;18.160;2023-02-13T05:03:11;1005.9;;;2.5;90.8
56272;BME280;42177;48.914;18.160;2023-02-13T05:08:10;1005.9;;;2.5;90.8
56272;BME280;42177;48.914;18.160;2023-02-13T05:13:10;1005.9;;;2.7;90
56272;BME280;42177;48.914;18.160;2023-02-13T05:18:10;1005.9;;;2.7;90
56272;BME280;42177;48.914;18.160;2023-02-13T05:23:12;1005.9;;;2.6;89.8
56272;BME280;42177;48.914;18.160;2023-02-13T05:28:10;1005.9;;;2.6;89.8
56272;BME280;42177;48.914;18.160;2023-02-13T05:33:10;1006;;;3;89.5
56272;BME280;42177;48.914;18.160;2023-02-13T05:38:10;1006;;;3;89.5
56272;BME280;42177;48.914;18.160;2023-02-13T05:43:10;1005.9;;;2.7;90.2
56272;BME280;42177;48.914;18.160;2023-02-13T05:48:10;1005.9;;;2.7;90.2
56272;BME280;42177;48.914;18.160;2023-02-13T05:53:10;1006;;;2.8;90.1
56272;BME280;42177;48.914;18.160;2023-02-13T05:58:10;1006;;;2.8;90.1
56272;BME280;42177;48.914;18.160;2023-02-13T06:03:10;1005.9;;;2.8;90.3
56272;BME280;42177;48.914;18.160;2023-02-13T06:08:10;1005.9;;;2.8;90.3
56272;BME280;42177;48.914;18.160;2023-02-13T06:13:10;1006;;;3;90.3
56272;BME280;42177;48.914;18.160;2023-02-13T06:18:10;1006;;;3;90.3
56272;BME280;42177;48.914;18.160;2023-02-13T06:23:10;1005.8;;;3.1;90.3
56272;BME280;42177;48.914;18.160;2023-02-13T06:28:10;1005.8;;;3.1;90.3
56272;BME280;42177;48.914;18.160;2023-02-13T06:33:10;1006;;;3.1;89.9
56272;BME280;42177;48.914;18.160;2023-02-13T06:38:10;1006;;;3.1;89.9
56272;BME280;42177;48.914;18.160;2023-02-13T06:43:10;1006;;;2.7;92.1
56272;BME280;42177;48.914;18.160;2023-02-13T06:48:10;1006;;;2.7;92.1
56272;BME280;42177;48.914;18.160;2023-02-13T06:53:10;1006;;;3.1;91.4
56272;BME280;42177;48.914;18.160;2023-02-13T06:58:10;1006;;;3.1;91.4
56272;BME280;42177;48.914;18.160;2023-02-13T07:03:10;1006;;;3.6;90.2
56272;BME280;42177;48.914;18.160;2023-02-13T07:08:10;1006;;;3.6;90.2
56272;BME280;42177;48.914;18.160;2023-02-13T07:13:10;1006.2;;;3.6;89.9
56272;BME280;42177;48.914;18.160;2023-02-13T07:18:10;1006.2;;;3.6;89.9
56272;BME280;42177;48.914;18.160;2023-02-13T07:23:10;1006.2;;;3.7;89.8
56272;BME280;42177;48.914;18.160;2023-02-13T07:28:10;1006.2;;;3.7;89.8
56272;BME280;42177;48.914;18.160;2023-02-13T07:33:10;1006.3;;;3.9;90.3
56272;BME280;42177;48.914;18.160;2023-02-13T07:38:10;1006.3;;;3.9;90.3
56272;BME280;42177;48.914;18.160;2023-02-13T07:43:10;1006.3;;;4.3;89.5
56272;BME280;42177;48.914;18.160;2023-02-13T07:48:10;1006.3;;;4.3;89.5
56272;BME280;42177;48.914;18.160;2023-02-13T07:53:10;1006.3;;;4.5;89.5
56272;BME280;42177;48.914;18.160;2023-02-13T07:58:10;1006.3;;;4.5;89.5
56272;BME280;42177;48.914;18.160;2023-02-13T08:03:10;1006.1;;;4.4;90
56272;BME280;42177;48.914;18.160;2023-02-13T08:08:10;1006.1;;;4.4;90
56272;BME280;42177;48.914;18.160;2023-02-13T08:13:10;1006;;;4.8;88.4
56272;BME280;42177;48.914;18.160;2023-02-13T08:18:10;1006;;;4.8;88.4
56272;BME280;42177;48.914;18.160;2023-02-13T08:23:10;1006.1;;;4.9;88.7
56272;BME280;42177;48.914;18.160;2023-02-13T08:28:10;1006.1;;;4.9;88.7
56272;BME280;42177;48.914;18.160;2023-02-13T08:33:10;1006;;;5.5;86.9
56272;BME280;42177;48.914;18.160;2023-02-13T08:38:10;1006;;;5.5;86.9
56272;BME280;42177;48.914;18.160;2023-02-13T08:43:10;1006;;;5.5;86
56272;BME280;42177;48.914;18.160;2023-02-13T08:48:10;1006;;;5.5;86
56272;BME280;42177;48.914;18.160;2023-02-13T08:53:10;1006.1;;;5.4;85.6
56272;BME280;42177;48.914;18.160;2023-02-13T08:58:10;1006.1;;;5.4;85.6
56272;BME280;42177;48.914;18.160;2023-02-13T09:03:10;1006.1;;;5.1;87.5
56272;BME280;42177;48.914;18.160;2023-02-13T09:08:10;1006.1;;;5.1;87.5
56272;BME280;42177;48.914;18.160;2023-02-13T09:13:10;1006.1;;;5.7;84.9
56272;BME280;42177;48.914;18.160;2023-02-13T09:18:10;1006.1;;;5.7;84.9
56272;BME280;42177;48.914;18.160;2023-02-13T09:23:10;1006.2;;;5.3;86
56272;BME280;42177;48.914;18.160;2023-02-13T09:28:10;1006.2;;;5.3;86
56272;BME280;42177;48.914;18.160;2023-02-13T09:33:10;1006.1;;;5.7;83.8
56272;BME280;42177;48.914;18.160;2023-02-13T09:38:10;1006.1;;;5.7;83.8
56272;BME280;42177;48.914;18.160;2023-02-13T09:43:12;1006.1;;;6.7;82.1
56272;BME280;42177;48.914;18.160;2023-02-13T09:48:13;1006.1;;;6.7;82.1
56272;BME280;42177;48.914;18.160;2023-02-13T09:53:12;1005.9;;;7.1;80.5
56272;BME280;42177;48.914;18.160;2023-02-13T09:58:12;1005.9;;;7.1;80.5
56272;BME280;42177;48.914;18.160;2023-02-13T10:03:15;1005.8;;;8.6;72.8
56272;BME280;42177;48.914;18.160;2023-02-13T10:08:11;1005.8;;;8.6;72.8
56272;BME280;42177;48.914;18.160;2023-02-13T10:13:14;1005.9;;;8.9;69.5
56272;BME280;42177;48.914;18.160;2023-02-13T10:18:11;1005.9;;;8.9;69.5
56272;BME280;42177;48.914;18.160;2023-02-13T10:23:15;1005.7;;;9.3;67.2
56272;BME280;42177;48.914;18.160;2023-02-13T10:28:11;1005.7;;;9.3;67.2
56272;BME280;42177;48.914;18.160;2023-02-13T10:33:11;1005.4;;;9.9;65.7
56272;BME280;42177;48.914;18.160;2023-02-13T10:38:11;1005.4;;;9.9;65.7
56272;BME280;42177;48.914;18.160;2023-02-13T10:43:10;1005.3;;;10.4;63.8
56272;BME280;42177;48.914;18.160;2023-02-13T10:48:14;1005.3;;;10.4;63.8
56272;BME280;42177;48.914;18.160;2023-02-13T10:53:12;1005.2;;;10.7;62.9
56272;BME280;42177;48.914;18.160;2023-02-13T10:58:11;1005.2;;;10.7;62.9
56272;BME280;42177;48.914;18.160;2023-02-13T11:03:14;1005.1;;;9.9;65.4
56272;BME280;42177;48.914;18.160;2023-02-13T11:08:13;1005.1;;;9.9;65.4
56272;BME280;42177;48.914;18.160;2023-02-13T11:13:15;1005;;;9.6;68.6
56272;BME280;42177;48.914;18.160;2023-02-13T11:18:12;1005;;;9.6;68.6
56272;BME280;42177;48.914;18.160;2023-02-13T11:23:24;1005.1;;;9.3;70.2
56272;BME280;42177;48.914;18.160;2023-02-13T11:28:14;1005.1;;;9.3;70.2
56272;BME280;42177;48.914;18.160;2023-02-13T11:33:18;1005.1;;;9;71.8
56272;BME280;42177;48.914;18.160;2023-02-13T11:38:11;1005.1;;;9;71.8
56272;BME280;42177;48.914;18.160;2023-02-13T11:43:13;1005.1;;;8.9;72.4
56272;BME280;42177;48.914;18.160;2023-02-13T11:48:16;1005.1;;;8.9;72.4
56272;BME280;42177;48.914;18.160;2023-02-13T11:53:15;1004.9;;;9.8;69.2
56272;BME280;42177;48.914;18.160;2023-02-13T11:58:21;1004.9;;;9.8;69.2
56272;BME280;42177;48.914;18.160;2023-02-13T12:03:27;1004.9;;;10.3;66.1
56272;BME280;42177;48.914;18.160;2023-02-13T12:08:10;1004.9;;;10.3;66.1
56272;BME280;42177;48.914;18.160;2023-02-13T12:13:12;1004.7;;;9.8;67.4
56272;BME280;42177;48.914;18.160;2023-02-13T12:18:12;1004.7;;;9.8;67.4
56272;BME280;42177;48.914;18.160;2023-02-13T12:23:13;1004.7;;;9.5;69.1
56272;BME280;42177;48.914;18.160;2023-02-13T12:28:11;1004.7;;;9.5;69.1
56272;BME280;42177;48.914;18.160;2023-02-13T12:33:13;1004.6;;;9.4;71
56272;BME280;42177;48.914;18.160;2023-02-13T12:38:14;1004.6;;;9.4;71
56272;BME280;42177;48.914;18.160;2023-02-13T12:43:15;1004.5;;;9.4;70.2
56272;BME280;42177;48.914;18.160;2023-02-13T12:48:15;1004.5;;;9.4;70.2
56272;BME280;42177;48.914;18.160;2023-02-13T12:53:20;1004.4;;;10;69.4
56272;BME280;42177;48.914;18.160;2023-02-13T12:58:15;1004.4;;;10;69.4
56272;BME280;42177;48.914;18.160;2023-02-13T13:03:17;1004.4;;;9.7;69.9
56272;BME280;42177;48.914;18.160;2023-02-13T13:08:15;1004.4;;;9.7;69.9
56272;BME280;42177;48.914;18.160;2023-02-13T13:13:13;1004.4;;;9.6;71.9
56272;BME280;42177;48.914;18.160;2023-02-13T13:18:14;1004.4;;;9.6;71.9
56272;BME280;42177;48.914;18.160;2023-02-13T13:23:11;1004.4;;;9.2;75.3
56272;BME280;42177;48.914;18.160;2023-02-13T13:28:10;1004.4;;;9.2;75.3
56272;BME280;42177;48.914;18.160;2023-02-13T13:33:12;1004.5;;;11;68
56272;BME280;42177;48.914;18.160;2023-02-13T13:38:11;1004.5;;;11;68
56272;BME280;42177;48.914;18.160;2023-02-13T13:43:14;1004.4;;;10;70
56272;BME280;42177;48.914;18.160;2023-02-13T13:48:23;1004.4;;;10;70
56272;BME280;42177;48.914;18.160;2023-02-13T13:53:11;1004.4;;;9.6;73.3
56272;BME280;42177;48.914;18.160;2023-02-13T13:58:19;1004.4;;;9.6;73.3
56272;BME280;42177;48.914;18.160;2023-02-13T14:03:18;1004.4;;;9.4;74.5
56272;BME280;42177;48.914;18.160;2023-02-13T14:13:12;1004.4;;;10.1;71.2
56272;BME280;42177;48.914;18.160;2023-02-13T14:18:14;1004.4;;;10.1;71.2
56272;BME280;42177;48.914;18.160;2023-02-13T14:23:13;1004.3;;;9.5;73
56272;BME280;42177;48.914;18.160;2023-02-13T14:28:17;1004.3;;;9.5;73
56272;BME280;42177;48.914;18.160;2023-02-13T14:33:20;1004.3;;;9.3;73.5
56272;BME280;42177;48.914;18.160;2023-02-13T14:38:19;1004.3;;;9.3;73.5
56272;BME280;42177;48.914;18.160;2023-02-13T14:43:46;1004.4;;;9.2;74.5
56272;BME280;42177;48.914;18.160;2023-02-13T14:48:11;1004.4;;;9.2;74.5
56272;BME280;42177;48.914;18.160;2023-02-13T14:53:14;1004.4;;;9;75.4
56272;BME280;42177;48.914;18.160;2023-02-13T14:58:11;1004.4;;;9;75.4
56272;BME280;42177;48.914;18.160;2023-02-13T15:03:12;1004.3;;;8.7;75.8
56272;BME280;42177;48.914;18.160;2023-02-13T15:08:11;1004.3;;;8.7;75.8
56272;BME280;42177;48.914;18.160;2023-02-13T15:13:12;1004.3;;;8.7;77
56272;BME280;42177;48.914;18.160;2023-02-13T15:18:21;1004.3;;;8.7;77
56272;BME280;42177;48.914;18.160;2023-02-13T15:23:14;1004.1;;;8.7;77
56272;BME280;42177;48.914;18.160;2023-02-13T15:28:16;1004.1;;;8.7;77
56272;BME280;42177;48.914;18.160;2023-02-13T15:33:14;1004.2;;;8.5;78.1
56272;BME280;42177;48.914;18.160;2023-02-13T15:38:18;1004.2;;;8.5;78.1
56272;BME280;42177;48.914;18.160;2023-02-13T15:43:13;1004.1;;;8.2;79.6
56272;BME280;42177;48.914;18.160;2023-02-13T15:48:11;1004.1;;;8.2;79.6
56272;BME280;42177;48.914;18.160;2023-02-13T15:53:11;1003.9;;;8.1;80.4
56272;BME280;42177;48.914;18.160;2023-02-13T15:58:11;1003.9;;;8.1;80.4
56272;BME280;42177;48.914;18.160;2023-02-13T16:03:12;1003.9;;;8.3;79.1
56272;BME280;42177;48.914;18.160;2023-02-13T16:08:23;1003.9;;;8.3;79.1
56272;BME280;42177;48.914;18.160;2023-02-13T16:13:14;1004;;;8.2;79.8
56272;BME280;42177;48.914;18.160;2023-02-13T16:18:10;1004;;;8.2;79.8
56272;BME280;42177;48.914;18.160;2023-02-13T16:23:12;1004;;;8.3;78.9
56272;BME280;42177;48.914;18.160;2023-02-13T16:28:13;1004;;;8.3;78.9
56272;BME280;42177;48.914;18.160;2023-02-13T16:33:16;1004.1;;;8.2;79.2
56272;BME280;42177;48.914;18.160;2023-02-13T16:38:30;1004.1;;;8.2;79.2
56272;BME280;42177;48.914;18.160;2023-02-13T16:43:43;1004;;;7.8;80.1
56272;BME280;42177;48.914;18.160;2023-02-13T16:48:11;1004;;;7.8;80.1
56272;BME280;42177;48.914;18.160;2023-02-13T16:53:10;1003.9;;;7.6;81
56272;BME280;42177;48.914;18.160;2023-02-13T16:58:10;1003.9;;;7.6;81
56272;BME280;42177;48.914;18.160;2023-02-13T17:03:10;1004.1;;;7.5;83.4
56272;BME280;42177;48.914;18.160;2023-02-13T17:08:10;1004.1;;;7.5;83.4
56272;BME280;42177;48.914;18.160;2023-02-13T17:13:11;1004;;;7.4;82.1
56272;BME280;42177;48.914;18.160;2023-02-13T17:18:10;1004;;;7.4;82.1
56272;BME280;42177;48.914;18.160;2023-02-13T17:23:13;1004;;;7.5;82.4
56272;BME280;42177;48.914;18.160;2023-02-13T17:28:11;1004;;;7.5;82.4
56272;BME280;42177;48.914;18.160;2023-02-13T17:33:11;1004.1;;;7.1;83.8
56272;BME280;42177;48.914;18.160;2023-02-13T17:38:10;1004.1;;;7.1;83.8
56272;BME280;42177;48.914;18.160;2023-02-13T17:43:11;1004;;;7.5;81.8
56272;BME280;42177;48.914;18.160;2023-02-13T17:48:10;1004;;;7.5;81.8
56272;BME280;42177;48.914;18.160;2023-02-13T17:53:14;1004;;;7.1;83
56272;BME280;42177;48.914;18.160;2023-02-13T17:58:10;1004;;;7.1;83
56272;BME280;42177;48.914;18.160;2023-02-13T18:03:10;1004;;;6.9;84.3
56272;BME280;42177;48.914;18.160;2023-02-13T18:08:10;1004;;;6.9;84.3
56272;BME280;42177;48.914;18.160;2023-02-13T18:13:10;1003.7;;;6.8;84.8
56272;BME280;42177;48.914;18.160;2023-02-13T18:18:10;1003.7;;;6.8;84.8
56272;BME280;42177;48.914;18.160;2023-02-13T18:23:10;1003.9;;;6.9;85.1
56272;BME280;42177;48.914;18.160;2023-02-13T18:28:10;1003.9;;;6.9;85.1
56272;BME280;42177;48.914;18.160;2023-02-13T18:33:10;1003.8;;;7;84.5
56272;BME280;42177;48.914;18.160;2023-02-13T18:38:10;1003.8;;;7;84.5
56272;BME280;42177;48.914;18.160;2023-02-13T18:43:10;1003.7;;;7;85.3
56272;BME280;42177;48.914;18.160;2023-02-13T18:48:10;1003.7;;;7;85.3
56272;BME280;42177;48.914;18.160;2023-02-13T18:53:10;1003.5;;;7.1;84.2
56272;BME280;42177;48.914;18.160;2023-02-13T18:58:10;1003.5;;;7.1;84.2
56272;BME280;42177;48.914;18.160;2023-02-13T19:03:10;1003.7;;;7.2;84.7
56272;BME280;42177;48.914;18.160;2023-02-13T19:08:10;1003.7;;;7.2;84.7
56272;BME280;42177;48.914;18.160;2023-02-13T19:13:10;1003.6;;;7.1;85.3
56272;BME280;42177;48.914;18.160;2023-02-13T19:18:10;1003.6;;;7.1;85.3
56272;BME280;42177;48.914;18.160;2023-02-13T19:23:10;1003.6;;;7.2;85.7
56272;BME280;42177;48.914;18.160;2023-02-13T19:28:10;1003.6;;;7.2;85.7
56272;BME280;42177;48.914;18.160;2023-02-13T19:33:10;1003.7;;;7;87.1
56272;BME280;42177;48.914;18.160;2023-02-13T19:38:10;1003.7;;;7;87.1
56272;BME280;42177;48.914;18.160;2023-02-13T19:43:10;1003.6;;;7.1;87.1
56272;BME280;42177;48.914;18.160;2023-02-13T19:48:10;1003.6;;;7.1;87.1
56272;BME280;42177;48.914;18.160;2023-02-13T19:53:10;1003.6;;;7;88.1
56272;BME280;42177;48.914;18.160;2023-02-13T19:58:10;1003.6;;;7;88.1
56272;BME280;42177;48.914;18.160;2023-02-13T20:03:10;1003.5;;;7.2;89
56272;BME280;42177;48.914;18.160;2023-02-13T20:08:10;1003.5;;;7.2;89
56272;BME280;42177;48.914;18.160;2023-02-13T20:13:10;1003.4;;;6.9;88.9
56272;BME280;42177;48.914;18.160;2023-02-13T20:18:10;1003.4;;;6.9;88.9
56272;BME280;42177;48.914;18.160;2023-02-13T20:23:10;1003.6;;;6.9;89.4
56272;BME280;42177;48.914;18.160;2023-02-13T20:28:10;1003.6;;;6.9;89.4
56272;BME280;42177;48.914;18.160;2023-02-13T20:33:10;1003.9;;;6.8;90.1
56272;BME280;42177;48.914;18.160;2023-02-13T20:38:10;1003.9;;;6.8;90.1
56272;BME280;42177;48.914;18.160;2023-02-13T20:43:10;1003.8;;;6.8;90.1
56272;BME280;42177;48.914;18.160;2023-02-13T20:48:10;1003.8;;;6.8;90.1
56272;BME280;42177;48.914;18.160;2023-02-13T20:53:10;1003.9;;;6.8;90.5
56272;BME280;42177;48.914;18.160;2023-02-13T20:58:10;1003.9;;;6.8;90.5
56272;BME280;42177;48.914;18.160;2023-02-13T21:03:10;1003.9;;;6.8;90.1
56272;BME280;42177;48.914;18.160;2023-02-13T21:08:10;1003.9;;;6.8;90.1
56272;BME280;42177;48.914;18.160;2023-02-13T21:13:10;1003.8;;;6.6;90.8
56272;BME280;42177;48.914;18.160;2023-02-13T21:18:10;1003.8;;;6.6;90.8
56272;BME280;42177;48.914;18.160;2023-02-13T21:23:10;1003.9;;;6.6;91.5
56272;BME280;42177;48.914;18.160;2023-02-13T21:28:10;1003.9;;;6.6;91.5
56272;BME280;42177;48.914;18.160;2023-02-13T21:33:10;1003.8;;;6.5;92
56272;BME280;42177;48.914;18.160;2023-02-13T21:38:10;1003.8;;;6.5;92
56272;BME280;42177;48.914;18.160;2023-02-13T21:43:10;1003.8;;;6.4;92.5
56272;BME280;42177;48.914;18.160;2023-02-13T21:48:10;1003.8;;;6.4;92.5
56272;BME280;42177;48.914;18.160;2023-02-13T21:53:10;1003.8;;;6.2;93.6
56272;BME280;42177;48.914;18.160;2023-02-13T21:58:10;1003.8;;;6.2;93.6
56272;BME280;42177;48.914;18.160;2023-02-13T22:03:10;1004;;;6.3;92.8
56272;BME280;42177;48.914;18.160;2023-02-13T22:08:10;1004;;;6.3;92.8
56272;BME280;42177;48.914;18.160;2023-02-13T22:13:10;1003.9;;;6.1;94.3
56272;BME280;42177;48.914;18.160;2023-02-13T22:18:10;1003.9;;;6.1;94.3
56272;BME280;42177;48.914;18.160;2023-02-13T22:23:10;1003.9;;;5.9;95.2
56272;BME280;42177;48.914;18.160;2023-02-13T22:28:10;1003.9;;;5.9;95.2
56272;BME280;42177;48.914;18.160;2023-02-13T22:33:10;1003.9;;;5.8;96.1
56272;BME280;42177;48.914;18.160;2023-02-13T22:38:10;1003.9;;;5.8;96.1
56272;BME280;42177;48.914;18.160;2023-02-13T22:43:10;1003.8;;;6;95.8
56272;BME280;42177;48.914;18.160;2023-02-13T22:48:10;1003.8;;;6;95.8
56272;BME280;42177;48.914;18.160;2023-02-13T22:53:10;1003.8;;;5.9;95.7
56272;BME280;42177;48.914;18.160;2023-02-13T22:58:10;1003.8;;;5.9;95.7
56272;BME280;42177;48.914;18.160;2023-02-13T23:03:10;1003.7;;;5.8;96.6
56272;BME280;42177;48.914;18.160;2023-02-13T23:08:10;1003.7;;;5.8;96.6
56272;BME280;42177;48.914;18.160;2023-02-13T23:13:10;1003.7;;;5.9;96.5
56272;BME280;42177;48.914;18.160;2023-02-13T23:18:10;1003.7;;;5.9;96.5
56272;BME280;42177;48.914;18.160;2023-02-13T23:23:10;1003.7;;;5.9;96.5
56272;BME280;42177;48.914;18.160;2023-02-13T23:28:10;1003.7;;;5.9;96.5
56272;BME280;42177;48.914;18.160;2023-02-13T23:33:10;1003.6;;;5.6;97.9
56272;BME280;42177;48.914;18.160;2023-02-13T23:38:10;1003.6;;;5.6;97.9
56272;BME280;42177;48.914;18.160;2023-02-13T23:43:10;1003.6;;;5.7;97.9
56272;BME280;42177;48.914;18.160;2023-02-13T23:48:10;1003.6;;;5.7;97.9
56272;BME280;42177;48.914;18.160;2023-02-13T23:53:10;1003.4;;;5.6;99.1
56272;BME280;42177;48.914;18.160;2023-02-13T23:58:10;1003.4;;;5.6;99.1
